sensor_id;sensor_type;location;lat;lon;timestamp;noise_LAeq;noise_LA_min;noise_LA_max;noise_LA01;noise_LA95
38366;Laerm;943;51.568;6.998;2023-08-06T00:00:28;38.22;34.37;47.30;;
38366;Laerm;943;51.568;6.998;2023-08-06T00:02:56;37.52;33.43;49.75;;
38366;Laerm;943;51.568;6.998;2023-08-06T00:05:24;38.15;34.46;47.51;;
38366;Laerm;943;51.568;6.998;2023-08-06T00:07:52;38.86;34.54;45.61;;
38366;Laerm;943;51.568;6.998;2023-08-06T00:10:20;38.85;33.23;56.67;;
38366;Laerm;943;51.568;6.998;2023-08-06T00:12:48;39.31;33.43;47.68;;
38366;Laerm;943;51.568;6.998;2023-08-06T00:15:16;36.91;32.84;48.37;;
38366;Laerm;943;51.568;6.998;2023-08-06T00:17:44;36.51;32.56;42.25;;
38366;Laerm;943;51.568;6.998;2023-08-06T00:20:12;37.47;33.29;48.10;;
38366;Laerm;943;51.568;6.998;2023-08-06T00:22:40;38.56;33.39;47.31;;
38366;Laerm;943;51.568;6.998;2023-08-06T00:25:09;38.52;33.28;46.37;;
38366;Laerm;943;51.568;6.998;2023-08-06T00:27:37;37.02;33.89;47.44;;
38366;Laerm;943;51.568;6.998;2023-08-06T00:30:07;37.07;33.43;45.45;;
38366;Laerm;943;51.568;6.998;2023-08-06T00:32:35;38.16;34.14;48.32;;
38366;Laerm;943;51.568;6.998;2023-08-06T00:35:07;36.96;33.64;47.19;;
38366;Laerm;943;51.568;6.998;2023-08-06T00:37:35;38.27;34.17;44.28;;
38366;Laerm;943;51.568;6.998;2023-08-06T00:40:03;38.60;33.69;48.51;;
38366;Laerm;943;51.568;6.998;2023-08-06T00:42:31;37.22;32.49;42.49;;
38366;Laerm;943;51.568;6.998;2023-08-06T00:44:59;38.12;34.15;46.85;;
38366;Laerm;943;51.568;6.998;2023-08-06T00:47:27;36.98;33.12;44.06;;
38366;Laerm;943;51.568;6.998;2023-08-06T00:49:55;44.34;33.68;57.02;;
38366;Laerm;943;51.568;6.998;2023-08-06T00:52:23;40.39;33.82;63.10;;
38366;Laerm;943;51.568;6.998;2023-08-06T00:54:52;39.66;34.35;48.71;;
38366;Laerm;943;51.568;6.998;2023-08-06T00:57:24;37.66;33.81;59.71;;
38366;Laerm;943;51.568;6.998;2023-08-06T00:59:54;36.94;33.28;45.38;;
38366;Laerm;943;51.568;6.998;2023-08-06T01:02:23;37.07;33.29;45.42;;
38366;Laerm;943;51.568;6.998;2023-08-06T01:04:51;37.62;33.17;43.34;;
38366;Laerm;943;51.568;6.998;2023-08-06T01:11:43;38.10;33.01;55.21;;
38366;Laerm;943;51.568;6.998;2023-08-06T01:17:05;37.81;32.29;44.57;;
38366;Laerm;943;51.568;6.998;2023-08-06T01:19:33;36.19;32.70;40.78;;
38366;Laerm;943;51.568;6.998;2023-08-06T01:22:01;40.58;32.75;56.45;;
38366;Laerm;943;51.568;6.998;2023-08-06T01:24:29;37.92;32.79;49.94;;
38366;Laerm;943;51.568;6.998;2023-08-06T01:27:23;39.46;33.30;55.20;;
38366;Laerm;943;51.568;6.998;2023-08-06T01:30:26;35.97;31.95;46.57;;
38366;Laerm;943;51.568;6.998;2023-08-06T01:33:03;37.20;32.35;44.46;;
38366;Laerm;943;51.568;6.998;2023-08-06T01:35:35;38.47;33.05;48.62;;
38366;Laerm;943;51.568;6.998;2023-08-06T01:38:04;36.89;32.88;48.39;;
38366;Laerm;943;51.568;6.998;2023-08-06T01:40:32;37.05;32.52;43.16;;
38366;Laerm;943;51.568;6.998;2023-08-06T01:43:00;35.07;32.48;42.78;;
38366;Laerm;943;51.568;6.998;2023-08-06T01:45:28;36.10;32.25;45.98;;
38366;Laerm;943;51.568;6.998;2023-08-06T01:47:56;37.98;33.88;44.40;;
38366;Laerm;943;51.568;6.998;2023-08-06T01:50:24;36.69;32.34;42.34;;
38366;Laerm;943;51.568;6.998;2023-08-06T01:52:52;36.46;32.92;43.47;;
38366;Laerm;943;51.568;6.998;2023-08-06T01:55:19;37.56;33.00;49.25;;
38366;Laerm;943;51.568;6.998;2023-08-06T01:57:47;35.82;33.00;44.34;;
38366;Laerm;943;51.568;6.998;2023-08-06T02:00:15;36.80;33.33;48.97;;
38366;Laerm;943;51.568;6.998;2023-08-06T02:02:43;36.32;32.76;47.30;;
38366;Laerm;943;51.568;6.998;2023-08-06T02:05:11;36.74;32.58;46.11;;
38366;Laerm;943;51.568;6.998;2023-08-06T02:07:40;36.22;31.71;42.35;;
38366;Laerm;943;51.568;6.998;2023-08-06T02:10:08;42.11;32.81;60.23;;
38366;Laerm;943;51.568;6.998;2023-08-06T02:12:36;36.84;31.96;52.74;;
38366;Laerm;943;51.568;6.998;2023-08-06T02:15:05;36.44;31.91;46.54;;
38366;Laerm;943;51.568;6.998;2023-08-06T02:17:33;36.00;32.65;47.71;;
38366;Laerm;943;51.568;6.998;2023-08-06T02:20:01;36.80;32.02;43.03;;
38366;Laerm;943;51.568;6.998;2023-08-06T02:22:30;36.91;32.61;45.60;;
38366;Laerm;943;51.568;6.998;2023-08-06T02:24:57;35.42;32.61;43.20;;
38366;Laerm;943;51.568;6.998;2023-08-06T02:27:25;36.92;32.76;42.51;;
38366;Laerm;943;51.568;6.998;2023-08-06T02:29:53;36.00;32.45;44.52;;
38366;Laerm;943;51.568;6.998;2023-08-06T02:32:21;34.80;32.48;43.40;;
38366;Laerm;943;51.568;6.998;2023-08-06T02:34:49;35.75;32.39;42.23;;
38366;Laerm;943;51.568;6.998;2023-08-06T02:37:17;34.42;31.38;46.05;;
38366;Laerm;943;51.568;6.998;2023-08-06T02:39:45;37.49;31.64;47.20;;
38366;Laerm;943;51.568;6.998;2023-08-06T02:42:13;40.17;31.94;52.89;;
38366;Laerm;943;51.568;6.998;2023-08-06T02:44:41;36.24;32.00;45.35;;
38366;Laerm;943;51.568;6.998;2023-08-06T02:47:10;37.74;32.53;45.30;;
38366;Laerm;943;51.568;6.998;2023-08-06T02:49:38;41.23;34.32;50.53;;
38366;Laerm;943;51.568;6.998;2023-08-06T02:52:07;41.91;34.42;50.99;;
38366;Laerm;943;51.568;6.998;2023-08-06T02:54:35;37.76;32.73;46.38;;
38366;Laerm;943;51.568;6.998;2023-08-06T02:57:03;36.36;32.64;48.65;;
38366;Laerm;943;51.568;6.998;2023-08-06T02:59:33;34.38;32.23;43.29;;
38366;Laerm;943;51.568;6.998;2023-08-06T03:02:14;35.94;32.41;60.19;;
38366;Laerm;943;51.568;6.998;2023-08-06T03:05:06;36.15;32.80;47.19;;
38366;Laerm;943;51.568;6.998;2023-08-06T03:07:38;36.61;32.57;47.15;;
38366;Laerm;943;51.568;6.998;2023-08-06T03:10:15;38.42;31.95;48.65;;
38366;Laerm;943;51.568;6.998;2023-08-06T03:12:44;36.05;32.43;45.62;;
38366;Laerm;943;51.568;6.998;2023-08-06T03:15:13;38.57;32.88;47.88;;
38366;Laerm;943;51.568;6.998;2023-08-06T03:17:43;36.97;32.25;48.45;;
38366;Laerm;943;51.568;6.998;2023-08-06T03:20:12;37.79;32.58;62.36;;
38366;Laerm;943;51.568;6.998;2023-08-06T03:22:40;37.12;32.07;45.08;;
38366;Laerm;943;51.568;6.998;2023-08-06T03:25:08;35.57;32.14;47.98;;
38366;Laerm;943;51.568;6.998;2023-08-06T03:27:37;35.75;32.00;50.72;;
38366;Laerm;943;51.568;6.998;2023-08-06T03:30:08;37.36;33.21;50.46;;
38366;Laerm;943;51.568;6.998;2023-08-06T03:32:38;37.64;32.46;51.22;;
38366;Laerm;943;51.568;6.998;2023-08-06T03:35:06;38.87;32.86;55.48;;
38366;Laerm;943;51.568;6.998;2023-08-06T03:37:35;37.55;32.61;55.29;;
38366;Laerm;943;51.568;6.998;2023-08-06T03:40:09;35.93;33.00;54.87;;
38366;Laerm;943;51.568;6.998;2023-08-06T03:42:39;36.65;32.12;59.34;;
38366;Laerm;943;51.568;6.998;2023-08-06T03:45:10;37.11;33.25;44.80;;
38366;Laerm;943;51.568;6.998;2023-08-06T03:47:41;37.32;33.12;45.67;;
38366;Laerm;943;51.568;6.998;2023-08-06T03:50:11;36.94;32.73;46.62;;
38366;Laerm;943;51.568;6.998;2023-08-06T03:52:40;38.58;33.71;57.80;;
38366;Laerm;943;51.568;6.998;2023-08-06T03:55:12;39.72;33.78;54.04;;
38366;Laerm;943;51.568;6.998;2023-08-06T03:57:42;36.88;33.16;44.16;;
38366;Laerm;943;51.568;6.998;2023-08-06T04:00:13;38.79;34.23;49.93;;
38366;Laerm;943;51.568;6.998;2023-08-06T04:02:49;40.12;33.03;52.39;;
38366;Laerm;943;51.568;6.998;2023-08-06T04:05:18;41.95;32.75;54.39;;
38366;Laerm;943;51.568;6.998;2023-08-06T04:07:45;38.46;32.99;61.14;;
38366;Laerm;943;51.568;6.998;2023-08-06T04:10:13;38.82;33.62;52.51;;
38366;Laerm;943;51.568;6.998;2023-08-06T04:12:41;39.31;32.96;53.83;;
38366;Laerm;943;51.568;6.998;2023-08-06T04:15:09;38.94;33.32;55.59;;
38366;Laerm;943;51.568;6.998;2023-08-06T04:17:37;38.87;34.02;49.99;;
38366;Laerm;943;51.568;6.998;2023-08-06T04:20:07;47.36;32.91;61.35;;
38366;Laerm;943;51.568;6.998;2023-08-06T04:22:35;48.97;33.84;78.28;;
38366;Laerm;943;51.568;6.998;2023-08-06T04:25:05;46.31;34.08;61.65;;
38366;Laerm;943;51.568;6.998;2023-08-06T04:27:35;48.25;34.79;61.57;;
38366;Laerm;943;51.568;6.998;2023-08-06T04:30:06;42.77;33.62;60.32;;
38366;Laerm;943;51.568;6.998;2023-08-06T04:32:37;38.69;34.34;58.26;;
38366;Laerm;943;51.568;6.998;2023-08-06T04:35:07;37.56;32.50;50.25;;
38366;Laerm;943;51.568;6.998;2023-08-06T04:37:37;40.42;33.74;51.46;;
38366;Laerm;943;51.568;6.998;2023-08-06T04:40:06;39.21;33.33;45.67;;
38366;Laerm;943;51.568;6.998;2023-08-06T04:42:34;40.30;31.62;53.49;;
38366;Laerm;943;51.568;6.998;2023-08-06T04:45:03;38.72;32.80;54.14;;
38366;Laerm;943;51.568;6.998;2023-08-06T04:47:32;39.10;33.68;48.41;;
38366;Laerm;943;51.568;6.998;2023-08-06T04:50:00;39.87;34.03;50.02;;
38366;Laerm;943;51.568;6.998;2023-08-06T04:52:28;40.20;33.95;57.53;;
38366;Laerm;943;51.568;6.998;2023-08-06T04:54:56;47.80;32.51;69.70;;
38366;Laerm;943;51.568;6.998;2023-08-06T04:57:24;50.06;33.32;66.87;;
38366;Laerm;943;51.568;6.998;2023-08-06T04:59:52;46.77;32.46;60.48;;
38366;Laerm;943;51.568;6.998;2023-08-06T05:02:20;44.70;32.50;61.04;;
38366;Laerm;943;51.568;6.998;2023-08-06T05:04:48;45.55;34.12;60.84;;
38366;Laerm;943;51.568;6.998;2023-08-06T05:07:16;44.33;33.49;61.49;;
38366;Laerm;943;51.568;6.998;2023-08-06T05:09:44;37.87;32.70;44.89;;
38366;Laerm;943;51.568;6.998;2023-08-06T05:12:11;38.92;32.24;56.04;;
38366;Laerm;943;51.568;6.998;2023-08-06T05:14:39;37.44;32.73;47.88;;
38366;Laerm;943;51.568;6.998;2023-08-06T05:17:07;39.11;33.26;57.28;;
38366;Laerm;943;51.568;6.998;2023-08-06T05:19:35;37.60;31.79;50.64;;
38366;Laerm;943;51.568;6.998;2023-08-06T05:22:03;38.54;32.86;58.37;;
38366;Laerm;943;51.568;6.998;2023-08-06T05:24:31;38.15;33.31;55.48;;
38366;Laerm;943;51.568;6.998;2023-08-06T05:26:59;40.18;33.06;60.93;;
38366;Laerm;943;51.568;6.998;2023-08-06T05:29:27;38.69;32.42;49.35;;
38366;Laerm;943;51.568;6.998;2023-08-06T05:31:55;38.10;31.63;53.58;;
38366;Laerm;943;51.568;6.998;2023-08-06T05:34:23;37.83;33.19;51.47;;
38366;Laerm;943;51.568;6.998;2023-08-06T05:36:51;37.84;33.14;50.52;;
38366;Laerm;943;51.568;6.998;2023-08-06T05:39:20;40.91;33.78;52.43;;
38366;Laerm;943;51.568;6.998;2023-08-06T05:41:48;38.43;34.21;46.49;;
38366;Laerm;943;51.568;6.998;2023-08-06T05:44:16;39.64;34.17;52.07;;
38366;Laerm;943;51.568;6.998;2023-08-06T05:46:44;37.71;33.10;46.45;;
38366;Laerm;943;51.568;6.998;2023-08-06T05:49:11;39.36;34.50;49.06;;
38366;Laerm;943;51.568;6.998;2023-08-06T05:51:41;39.19;32.81;52.22;;
38366;Laerm;943;51.568;6.998;2023-08-06T05:54:09;36.94;31.90;43.99;;
38366;Laerm;943;51.568;6.998;2023-08-06T05:56:37;38.16;32.69;52.00;;
38366;Laerm;943;51.568;6.998;2023-08-06T05:59:05;38.00;32.86;50.35;;
38366;Laerm;943;51.568;6.998;2023-08-06T06:01:33;38.80;33.67;56.34;;
38366;Laerm;943;51.568;6.998;2023-08-06T06:04:01;36.91;32.55;57.03;;
38366;Laerm;943;51.568;6.998;2023-08-06T06:06:29;38.12;32.13;53.05;;
38366;Laerm;943;51.568;6.998;2023-08-06T06:08:57;38.74;32.52;58.31;;
38366;Laerm;943;51.568;6.998;2023-08-06T06:11:26;41.53;33.78;57.90;;
38366;Laerm;943;51.568;6.998;2023-08-06T06:13:54;39.63;33.53;54.46;;
38366;Laerm;943;51.568;6.998;2023-08-06T06:16:22;42.95;33.17;62.18;;
38366;Laerm;943;51.568;6.998;2023-08-06T06:18:49;39.65;33.78;48.59;;
38366;Laerm;943;51.568;6.998;2023-08-06T06:21:17;39.00;33.73;52.84;;
38366;Laerm;943;51.568;6.998;2023-08-06T06:23:45;41.11;33.55;58.36;;
38366;Laerm;943;51.568;6.998;2023-08-06T06:26:13;46.83;33.20;71.15;;
38366;Laerm;943;51.568;6.998;2023-08-06T06:28:41;37.13;32.41;50.11;;
38366;Laerm;943;51.568;6.998;2023-08-06T06:31:09;36.89;31.72;51.01;;
38366;Laerm;943;51.568;6.998;2023-08-06T06:33:38;44.17;32.67;60.77;;
38366;Laerm;943;51.568;6.998;2023-08-06T06:36:06;46.38;33.24;61.24;;
38366;Laerm;943;51.568;6.998;2023-08-06T06:38:36;42.28;32.57;62.96;;
38366;Laerm;943;51.568;6.998;2023-08-06T06:41:04;43.77;32.35;59.42;;
38366;Laerm;943;51.568;6.998;2023-08-06T06:43:33;42.84;33.88;59.84;;
38366;Laerm;943;51.568;6.998;2023-08-06T06:46:02;45.59;33.53;61.04;;
38366;Laerm;943;51.568;6.998;2023-08-06T06:48:32;42.42;34.08;55.25;;
38366;Laerm;943;51.568;6.998;2023-08-06T06:51:01;39.08;34.26;50.77;;
38366;Laerm;943;51.568;6.998;2023-08-06T06:53:29;38.17;34.22;47.23;;
38366;Laerm;943;51.568;6.998;2023-08-06T06:56:06;39.50;33.09;52.40;;
38366;Laerm;943;51.568;6.998;2023-08-06T06:58:34;37.99;33.33;46.99;;
38366;Laerm;943;51.568;6.998;2023-08-06T07:01:02;37.06;32.57;43.35;;
38366;Laerm;943;51.568;6.998;2023-08-06T07:03:29;38.24;32.56;52.54;;
38366;Laerm;943;51.568;6.998;2023-08-06T07:05:59;38.95;33.83;51.83;;
38366;Laerm;943;51.568;6.998;2023-08-06T07:08:33;39.45;34.92;50.89;;
38366;Laerm;943;51.568;6.998;2023-08-06T07:11:06;40.10;34.63;50.19;;
38366;Laerm;943;51.568;6.998;2023-08-06T07:13:35;44.57;34.27;59.95;;
38366;Laerm;943;51.568;6.998;2023-08-06T07:16:03;47.30;35.15;60.32;;
38366;Laerm;943;51.568;6.998;2023-08-06T07:18:31;45.76;37.88;61.15;;
38366;Laerm;943;51.568;6.998;2023-08-06T07:20:59;44.56;37.98;54.66;;
38366;Laerm;943;51.568;6.998;2023-08-06T07:23:27;40.31;33.52;49.32;;
38366;Laerm;943;51.568;6.998;2023-08-06T07:25:55;39.59;32.93;52.54;;
38366;Laerm;943;51.568;6.998;2023-08-06T07:28:23;40.15;35.11;56.57;;
38366;Laerm;943;51.568;6.998;2023-08-06T07:30:51;41.52;35.04;62.78;;
38366;Laerm;943;51.568;6.998;2023-08-06T07:33:19;42.67;34.79;55.33;;
38366;Laerm;943;51.568;6.998;2023-08-06T07:35:47;44.03;35.38;54.93;;
38366;Laerm;943;51.568;6.998;2023-08-06T07:38:15;47.37;35.05;58.82;;
38366;Laerm;943;51.568;6.998;2023-08-06T07:40:43;42.19;33.94;58.95;;
38366;Laerm;943;51.568;6.998;2023-08-06T07:43:10;40.87;35.58;52.89;;
38366;Laerm;943;51.568;6.998;2023-08-06T07:45:39;45.31;36.25;62.53;;
38366;Laerm;943;51.568;6.998;2023-08-06T07:48:07;41.11;34.86;62.21;;
38366;Laerm;943;51.568;6.998;2023-08-06T07:50:35;39.53;34.97;55.86;;
38366;Laerm;943;51.568;6.998;2023-08-06T07:53:03;40.87;34.87;51.24;;
38366;Laerm;943;51.568;6.998;2023-08-06T07:55:31;42.00;35.72;56.63;;
38366;Laerm;943;51.568;6.998;2023-08-06T07:57:59;44.70;37.04;60.13;;
38366;Laerm;943;51.568;6.998;2023-08-06T08:00:27;42.70;35.11;53.14;;
38366;Laerm;943;51.568;6.998;2023-08-06T08:02:55;40.86;35.87;54.01;;
38366;Laerm;943;51.568;6.998;2023-08-06T08:05:23;44.25;37.57;58.51;;
38366;Laerm;943;51.568;6.998;2023-08-06T08:07:51;42.93;37.96;56.38;;
38366;Laerm;943;51.568;6.998;2023-08-06T08:10:19;41.98;36.00;60.00;;
38366;Laerm;943;51.568;6.998;2023-08-06T08:12:47;42.54;35.01;68.48;;
38366;Laerm;943;51.568;6.998;2023-08-06T08:15:15;42.68;37.05;64.34;;
38366;Laerm;943;51.568;6.998;2023-08-06T08:17:44;47.63;37.35;61.46;;
38366;Laerm;943;51.568;6.998;2023-08-06T08:20:17;44.47;36.57;59.72;;
38366;Laerm;943;51.568;6.998;2023-08-06T08:22:45;45.07;36.43;60.76;;
38366;Laerm;943;51.568;6.998;2023-08-06T08:25:15;46.73;37.53;61.24;;
38366;Laerm;943;51.568;6.998;2023-08-06T08:27:44;43.89;37.22;59.70;;
38366;Laerm;943;51.568;6.998;2023-08-06T08:30:12;47.09;37.34;60.73;;
38366;Laerm;943;51.568;6.998;2023-08-06T08:32:40;42.61;37.81;50.12;;
38366;Laerm;943;51.568;6.998;2023-08-06T08:35:09;41.98;38.02;50.21;;
38366;Laerm;943;51.568;6.998;2023-08-06T08:37:37;41.62;37.47;53.91;;
38366;Laerm;943;51.568;6.998;2023-08-06T08:40:08;45.85;39.58;62.21;;
38366;Laerm;943;51.568;6.998;2023-08-06T08:42:39;43.78;36.04;68.37;;
38366;Laerm;943;51.568;6.998;2023-08-06T08:45:15;43.49;36.88;61.92;;
38366;Laerm;943;51.568;6.998;2023-08-06T08:47:44;48.31;39.56;57.44;;
38366;Laerm;943;51.568;6.998;2023-08-06T08:50:16;49.49;42.52;61.32;;
38366;Laerm;943;51.568;6.998;2023-08-06T08:52:47;47.61;38.66;70.50;;
38366;Laerm;943;51.568;6.998;2023-08-06T08:55:20;46.17;37.59;69.16;;
38366;Laerm;943;51.568;6.998;2023-08-06T08:57:50;44.93;37.11;60.03;;
38366;Laerm;943;51.568;6.998;2023-08-06T09:00:20;45.92;38.17;59.91;;
38366;Laerm;943;51.568;6.998;2023-08-06T09:02:49;40.22;36.25;50.15;;
38366;Laerm;943;51.568;6.998;2023-08-06T09:05:23;45.76;36.94;60.03;;
38366;Laerm;943;51.568;6.998;2023-08-06T09:07:57;43.63;37.07;60.15;;
38366;Laerm;943;51.568;6.998;2023-08-06T09:10:30;41.19;36.70;50.82;;
38366;Laerm;943;51.568;6.998;2023-08-06T09:12:59;40.94;36.92;58.34;;
38366;Laerm;943;51.568;6.998;2023-08-06T09:15:29;47.00;35.16;60.35;;
38366;Laerm;943;51.568;6.998;2023-08-06T09:17:57;45.94;36.87;60.58;;
38366;Laerm;943;51.568;6.998;2023-08-06T09:20:26;42.91;35.17;60.62;;
38366;Laerm;943;51.568;6.998;2023-08-06T09:22:54;40.06;35.00;51.78;;
38366;Laerm;943;51.568;6.998;2023-08-06T09:25:24;40.42;36.15;46.42;;
38366;Laerm;943;51.568;6.998;2023-08-06T09:27:54;43.49;35.38;65.33;;
38366;Laerm;943;51.568;6.998;2023-08-06T09:30:36;43.04;37.24;67.41;;
38366;Laerm;943;51.568;6.998;2023-08-06T09:33:09;39.76;34.55;49.77;;
38366;Laerm;943;51.568;6.998;2023-08-06T09:35:46;41.61;35.11;53.74;;
38366;Laerm;943;51.568;6.998;2023-08-06T09:38:15;40.90;35.70;52.44;;
38366;Laerm;943;51.568;6.998;2023-08-06T09:40:43;44.08;35.84;62.51;;
38366;Laerm;943;51.568;6.998;2023-08-06T09:43:12;42.80;36.21;59.25;;
38366;Laerm;943;51.568;6.998;2023-08-06T09:45:41;42.77;35.68;54.72;;
38366;Laerm;943;51.568;6.998;2023-08-06T09:48:10;42.76;37.70;61.89;;
38366;Laerm;943;51.568;6.998;2023-08-06T09:50:39;46.76;38.10;71.04;;
38366;Laerm;943;51.568;6.998;2023-08-06T09:53:09;43.83;38.46;58.01;;
38366;Laerm;943;51.568;6.998;2023-08-06T09:55:38;49.21;39.64;74.24;;
38366;Laerm;943;51.568;6.998;2023-08-06T09:58:08;44.35;39.04;61.18;;
38366;Laerm;943;51.568;6.998;2023-08-06T10:00:37;44.80;39.84;61.52;;
38366;Laerm;943;51.568;6.998;2023-08-06T10:03:09;48.83;41.64;65.35;;
38366;Laerm;943;51.568;6.998;2023-08-06T10:05:39;48.73;41.21;66.53;;
38366;Laerm;943;51.568;6.998;2023-08-06T10:08:08;43.88;39.79;56.33;;
38366;Laerm;943;51.568;6.998;2023-08-06T10:10:37;47.04;39.48;60.78;;
38366;Laerm;943;51.568;6.998;2023-08-06T10:13:08;48.63;38.87;62.32;;
38366;Laerm;943;51.568;6.998;2023-08-06T10:15:39;45.31;36.98;60.75;;
38366;Laerm;943;51.568;6.998;2023-08-06T10:18:07;49.44;38.39;71.26;;
38366;Laerm;943;51.568;6.998;2023-08-06T10:20:36;46.94;39.04;60.64;;
38366;Laerm;943;51.568;6.998;2023-08-06T10:23:06;49.92;38.61;68.13;;
38366;Laerm;943;51.568;6.998;2023-08-06T10:25:41;45.63;38.15;60.71;;
38366;Laerm;943;51.568;6.998;2023-08-06T10:28:11;49.15;36.53;60.97;;
38366;Laerm;943;51.568;6.998;2023-08-06T10:30:47;44.65;37.55;62.73;;
38366;Laerm;943;51.568;6.998;2023-08-06T10:33:15;42.93;36.87;60.90;;
38366;Laerm;943;51.568;6.998;2023-08-06T10:35:50;44.21;36.56;57.10;;
38366;Laerm;943;51.568;6.998;2023-08-06T10:38:25;47.19;37.01;71.23;;
38366;Laerm;943;51.568;6.998;2023-08-06T10:43:37;44.39;37.40;57.70;;
38366;Laerm;943;51.568;6.998;2023-08-06T10:46:27;55.91;47.98;72.91;;
38366;Laerm;943;51.568;6.998;2023-08-06T10:48:56;58.42;52.96;71.77;;
38366;Laerm;943;51.568;6.998;2023-08-06T10:51:25;56.50;51.49;67.80;;
38366;Laerm;943;51.568;6.998;2023-08-06T10:53:54;51.07;48.10;60.82;;
38366;Laerm;943;51.568;6.998;2023-08-06T10:56:26;48.27;42.34;62.07;;
38366;Laerm;943;51.568;6.998;2023-08-06T10:58:57;50.30;41.68;70.99;;
38366;Laerm;943;51.568;6.998;2023-08-06T11:01:29;44.53;41.25;53.78;;
38366;Laerm;943;51.568;6.998;2023-08-06T11:04:03;44.09;40.17;55.64;;
38366;Laerm;943;51.568;6.998;2023-08-06T11:06:33;44.56;39.76;57.94;;
38366;Laerm;943;51.568;6.998;2023-08-06T11:09:02;44.91;39.82;59.61;;
38366;Laerm;943;51.568;6.998;2023-08-06T11:11:30;43.15;39.06;62.95;;
38366;Laerm;943;51.568;6.998;2023-08-06T11:13:58;43.17;38.59;53.07;;
38366;Laerm;943;51.568;6.998;2023-08-06T11:16:27;45.17;37.57;64.78;;
38366;Laerm;943;51.568;6.998;2023-08-06T11:18:55;45.76;38.10;58.25;;
38366;Laerm;943;51.568;6.998;2023-08-06T11:21:25;47.53;39.68;60.47;;
38366;Laerm;943;51.568;6.998;2023-08-06T11:23:54;45.94;40.04;64.60;;
38366;Laerm;943;51.568;6.998;2023-08-06T11:26:23;46.90;39.44;59.16;;
38366;Laerm;943;51.568;6.998;2023-08-06T11:28:51;44.85;39.54;63.35;;
38366;Laerm;943;51.568;6.998;2023-08-06T11:31:24;43.22;39.80;50.31;;
38366;Laerm;943;51.568;6.998;2023-08-06T11:33:54;43.90;39.77;56.05;;
38366;Laerm;943;51.568;6.998;2023-08-06T11:36:39;42.99;38.84;54.73;;
38366;Laerm;943;51.568;6.998;2023-08-06T11:39:09;42.82;38.01;59.30;;
38366;Laerm;943;51.568;6.998;2023-08-06T11:41:37;45.01;39.21;62.76;;
38366;Laerm;943;51.568;6.998;2023-08-06T11:44:11;43.31;39.48;54.73;;
38366;Laerm;943;51.568;6.998;2023-08-06T11:46:56;49.35;40.39;71.21;;
38366;Laerm;943;51.568;6.998;2023-08-06T11:49:48;49.18;43.52;60.25;;
38366;Laerm;943;51.568;6.998;2023-08-06T11:52:24;50.04;42.82;62.16;;
38366;Laerm;943;51.568;6.998;2023-08-06T11:55:09;48.43;43.63;61.41;;
38366;Laerm;943;51.568;6.998;2023-08-06T11:57:45;46.55;42.16;62.12;;
38366;Laerm;943;51.568;6.998;2023-08-06T12:00:15;47.42;41.71;59.72;;
38366;Laerm;943;51.568;6.998;2023-08-06T12:02:48;47.91;41.62;63.36;;
38366;Laerm;943;51.568;6.998;2023-08-06T12:05:20;47.77;41.04;60.66;;
38366;Laerm;943;51.568;6.998;2023-08-06T12:07:56;52.12;44.32;71.59;;
38366;Laerm;943;51.568;6.998;2023-08-06T12:10:31;47.69;43.24;63.44;;
38366;Laerm;943;51.568;6.998;2023-08-06T12:13:00;49.96;43.36;63.51;;
38366;Laerm;943;51.568;6.998;2023-08-06T12:15:28;47.19;42.73;60.94;;
38366;Laerm;943;51.568;6.998;2023-08-06T12:18:00;48.68;42.92;61.56;;
38366;Laerm;943;51.568;6.998;2023-08-06T12:20:28;48.70;43.49;63.56;;
38366;Laerm;943;51.568;6.998;2023-08-06T12:22:56;53.49;43.53;69.49;;
38366;Laerm;943;51.568;6.998;2023-08-06T12:25:24;57.98;44.66;81.53;;
38366;Laerm;943;51.568;6.998;2023-08-06T12:27:52;57.72;48.20;75.14;;
38366;Laerm;943;51.568;6.998;2023-08-06T12:30:20;57.95;52.62;73.19;;
38366;Laerm;943;51.568;6.998;2023-08-06T12:32:48;58.52;54.40;73.93;;
38366;Laerm;943;51.568;6.998;2023-08-06T12:35:19;64.46;57.96;89.02;;
38366;Laerm;943;51.568;6.998;2023-08-06T12:37:48;60.73;52.31;74.45;;
38366;Laerm;943;51.568;6.998;2023-08-06T12:40:16;54.96;51.01;67.31;;
38366;Laerm;943;51.568;6.998;2023-08-06T12:43:02;55.55;51.87;77.80;;
38366;Laerm;943;51.568;6.998;2023-08-06T12:45:31;57.04;51.51;74.87;;
38366;Laerm;943;51.568;6.998;2023-08-06T12:47:58;55.15;51.21;66.80;;
38366;Laerm;943;51.568;6.998;2023-08-06T12:50:27;56.37;50.58;83.66;;
38366;Laerm;943;51.568;6.998;2023-08-06T12:52:54;58.24;53.10;74.54;;
38366;Laerm;943;51.568;6.998;2023-08-06T12:55:22;58.62;55.17;71.87;;
38366;Laerm;943;51.568;6.998;2023-08-06T12:57:50;59.73;53.15;79.25;;
38366;Laerm;943;51.568;6.998;2023-08-06T13:00:27;55.80;51.42;68.50;;
38366;Laerm;943;51.568;6.998;2023-08-06T13:02:55;53.71;49.87;67.22;;
38366;Laerm;943;51.568;6.998;2023-08-06T13:05:23;51.34;48.23;68.75;;
38366;Laerm;943;51.568;6.998;2023-08-06T13:07:51;52.76;48.11;63.51;;
38366;Laerm;943;51.568;6.998;2023-08-06T13:10:20;52.26;47.17;69.16;;
38366;Laerm;943;51.568;6.998;2023-08-06T13:12:48;51.94;47.42;66.15;;
38366;Laerm;943;51.568;6.998;2023-08-06T13:15:16;50.61;46.44;68.88;;
38366;Laerm;943;51.568;6.998;2023-08-06T13:17:44;54.45;46.89;79.41;;
38366;Laerm;943;51.568;6.998;2023-08-06T13:20:13;50.91;44.87;69.37;;
38366;Laerm;943;51.568;6.998;2023-08-06T13:22:43;49.37;45.93;60.52;;
38366;Laerm;943;51.568;6.998;2023-08-06T13:25:14;49.66;44.74;62.32;;
38366;Laerm;943;51.568;6.998;2023-08-06T13:27:43;50.38;45.09;65.90;;
38366;Laerm;943;51.568;6.998;2023-08-06T13:30:12;49.13;44.52;63.36;;
38366;Laerm;943;51.568;6.998;2023-08-06T13:32:39;48.62;43.93;59.02;;
38366;Laerm;943;51.568;6.998;2023-08-06T13:35:08;50.19;44.61;66.78;;
38366;Laerm;943;51.568;6.998;2023-08-06T13:37:36;49.02;42.76;65.72;;
38366;Laerm;943;51.568;6.998;2023-08-06T13:40:05;48.99;44.69;59.99;;
38366;Laerm;943;51.568;6.998;2023-08-06T13:42:34;48.94;45.11;66.68;;
38366;Laerm;943;51.568;6.998;2023-08-06T13:45:04;51.90;44.53;69.72;;
38366;Laerm;943;51.568;6.998;2023-08-06T13:47:33;48.26;44.36;59.39;;
38366;Laerm;943;51.568;6.998;2023-08-06T13:50:03;48.06;44.45;65.20;;
38366;Laerm;943;51.568;6.998;2023-08-06T13:52:31;48.16;44.25;60.11;;
38366;Laerm;943;51.568;6.998;2023-08-06T13:54:59;50.27;44.75;62.45;;
38366;Laerm;943;51.568;6.998;2023-08-06T13:57:27;48.97;43.64;63.77;;
38366;Laerm;943;51.568;6.998;2023-08-06T13:59:55;49.18;43.23;59.81;;
38366;Laerm;943;51.568;6.998;2023-08-06T14:02:23;51.43;42.84;72.72;;
38366;Laerm;943;51.568;6.998;2023-08-06T14:04:53;49.58;44.51;59.66;;
38366;Laerm;943;51.568;6.998;2023-08-06T14:07:21;50.41;43.44;66.55;;
38366;Laerm;943;51.568;6.998;2023-08-06T14:09:49;49.26;42.53;66.65;;
38366;Laerm;943;51.568;6.998;2023-08-06T14:12:17;48.42;42.80;61.07;;
38366;Laerm;943;51.568;6.998;2023-08-06T14:14:45;48.38;43.48;59.41;;
38366;Laerm;943;51.568;6.998;2023-08-06T14:17:13;48.72;43.54;59.54;;
38366;Laerm;943;51.568;6.998;2023-08-06T14:19:41;49.27;44.30;62.42;;
38366;Laerm;943;51.568;6.998;2023-08-06T14:22:09;47.04;42.80;59.65;;
38366;Laerm;943;51.568;6.998;2023-08-06T14:24:37;48.83;42.67;68.37;;
38366;Laerm;943;51.568;6.998;2023-08-06T14:27:06;49.18;43.73;68.74;;
38366;Laerm;943;51.568;6.998;2023-08-06T14:29:34;50.88;44.25;65.32;;
38366;Laerm;943;51.568;6.998;2023-08-06T14:32:02;47.80;41.22;61.60;;